createdAt,value
2019-03-03T00:00:45.239Z,32.13
2019-03-03T00:01:22.853Z,30.08
2019-03-03T00:01:55.912Z,29.15
2019-03-03T00:02:28.934Z,29.42
2019-03-03T00:03:01.916Z,29.63
2019-03-03T00:03:34.836Z,29.95
2019-03-03T00:04:07.898Z,31.35
2019-03-03T00:04:40.772Z,30.62
2019-03-03T00:05:13.939Z,31.52
2019-03-03T00:05:46.943Z,30.48
2019-03-03T00:06:19.937Z,29.92
2019-03-03T00:06:52.820Z,29.92
2019-03-03T00:07:25.729Z,30.20
2019-03-03T00:07:58.651Z,29.77
2019-03-03T00:08:31.584Z,29.67
2019-03-03T00:09:06.723Z,31.52
2019-03-03T00:09:41.607Z,29.82
2019-03-03T00:10:14.688Z,29.67
2019-03-03T00:10:47.596Z,29.40
2019-03-03T00:11:20.504Z,30.10
2019-03-03T00:11:53.504Z,30.12
2019-03-03T00:12:26.440Z,30.57
2019-03-03T00:12:59.653Z,30.65
2019-03-03T00:13:32.707Z,30.65
2019-03-03T00:14:05.843Z,30.20
2019-03-03T00:14:38.840Z,29.82
2019-03-03T00:15:12.521Z,30.55
2019-03-03T00:15:45.640Z,30.12
2019-03-03T00:16:18.828Z,29.63
2019-03-03T00:16:51.825Z,29.65
2019-03-03T00:17:24.765Z,29.85
2019-03-03T00:17:58.668Z,30.50
2019-03-03T00:18:31.455Z,30.00
2019-03-03T00:19:15.328Z,30.10
2019-03-03T00:19:50.130Z,29.42
2019-03-03T00:20:23.112Z,30.23
2019-03-03T00:20:57.439Z,30.70
2019-03-03T00:21:30.710Z,30.05
2019-03-03T00:22:03.909Z,30.35
2019-03-03T00:22:37.003Z,30.85
2019-03-03T00:23:10.008Z,29.82
2019-03-03T00:23:42.829Z,30.17
2019-03-03T00:24:15.863Z,30.05
2019-03-03T00:24:48.912Z,30.30
2019-03-03T00:25:22.010Z,30.17
2019-03-03T00:25:54.954Z,33.02
2019-03-03T00:26:27.845Z,30.05
2019-03-03T00:27:00.859Z,32.42
2019-03-03T00:27:33.897Z,32.78
2019-03-03T00:28:06.877Z,29.92
2019-03-03T00:28:39.862Z,30.73
2019-03-03T00:29:12.884Z,30.20
2019-03-03T00:29:45.699Z,30.10
2019-03-03T00:30:20.367Z,30.57
2019-03-03T00:30:53.374Z,30.75
2019-03-03T00:31:38.587Z,30.82
2019-03-03T00:32:11.523Z,30.62
2019-03-03T00:32:44.680Z,31.60
2019-03-03T00:33:19.288Z,30.17
2019-03-03T00:33:52.281Z,31.65
2019-03-03T00:34:25.268Z,29.95
2019-03-03T00:34:58.216Z,30.80
2019-03-03T00:35:31.702Z,30.32
2019-03-03T00:36:04.764Z,30.72
2019-03-03T00:36:55.777Z,30.65
2019-03-03T00:37:36.210Z,30.00
2019-03-03T00:38:44.285Z,32.67
2019-03-03T00:39:32.842Z,31.33
2019-03-03T00:40:24.233Z,30.27
2019-03-03T00:41:26.962Z,32.40
2019-03-03T00:42:19.942Z,31.52
2019-03-03T00:43:11.585Z,31.27
2019-03-03T00:43:51.793Z,30.25
2019-03-03T00:44:31.133Z,30.25
2019-03-03T00:45:18.729Z,30.40
2019-03-03T00:46:01.096Z,30.48
2019-03-03T00:46:52.222Z,30.75
2019-03-03T00:47:48.860Z,30.62
2019-03-03T00:48:40.442Z,30.87
2019-03-03T00:49:45.400Z,30.75
2019-03-03T00:50:37.909Z,30.37
2019-03-03T00:51:19.863Z,29.90
2019-03-03T00:52:02.099Z,31.37
2019-03-03T00:52:45.318Z,30.27
2019-03-03T00:53:29.024Z,30.85
2019-03-03T00:54:21.768Z,30.40
2019-03-03T00:55:13.279Z,31.17
2019-03-03T00:56:02.935Z,30.57
2019-03-03T00:56:49.739Z,30.57
2019-03-03T00:57:57.534Z,29.95
2019-03-03T00:58:41.986Z,30.30
2019-03-03T00:59:26.922Z,31.07
2019-03-03T01:00:07.635Z,30.88
2019-03-03T01:00:52.236Z,30.75
2019-03-03T01:01:40.879Z,30.17
2019-03-03T01:02:31.535Z,30.97
2019-03-03T01:03:11.404Z,30.48
2019-03-03T01:04:04.006Z,30.97
2019-03-03T01:04:57.894Z,31.00
2019-03-03T01:05:53.483Z,31.40
2019-03-03T01:06:37.322Z,31.17
2019-03-03T01:07:42.432Z,33.58
2019-03-03T01:08:25.262Z,30.65
2019-03-03T01:09:30.708Z,30.80
2019-03-03T01:10:16.262Z,31.05
2019-03-03T01:10:56.202Z,31.30
2019-03-03T01:11:55.380Z,30.77
2019-03-03T01:12:42.075Z,30.97
2019-03-03T01:13:27.950Z,29.98
2019-03-03T01:14:09.426Z,35.73
2019-03-03T01:15:01.144Z,31.52
2019-03-03T01:15:51.652Z,31.35
2019-03-03T01:16:43.557Z,29.80
2019-03-03T01:17:25.194Z,31.62
2019-03-03T01:18:13.038Z,32.23
2019-03-03T01:19:03.333Z,30.45
2019-03-03T01:19:58.338Z,31.07
2019-03-03T01:20:50.926Z,30.70
2019-03-03T01:21:31.395Z,31.82
2019-03-03T01:22:27.536Z,30.08
2019-03-03T01:23:18.477Z,30.40
2019-03-03T01:24:02.931Z,31.80
2019-03-03T01:24:48.705Z,30.92
2019-03-03T01:25:21.726Z,30.48
2019-03-03T01:25:55.178Z,31.55
2019-03-03T01:26:28.068Z,34.18
2019-03-03T01:27:01.004Z,31.37
2019-03-03T01:27:34.027Z,31.23
2019-03-03T01:28:06.996Z,32.10
2019-03-03T01:28:40.110Z,33.78
2019-03-03T01:29:13.341Z,30.77
2019-03-03T01:29:47.070Z,30.35
2019-03-03T01:30:20.129Z,31.20
2019-03-03T01:30:53.234Z,31.35
2019-03-03T01:31:26.162Z,30.82
2019-03-03T01:31:59.203Z,30.60
2019-03-03T01:32:32.265Z,30.77
2019-03-03T01:33:05.248Z,31.20
2019-03-03T01:33:38.328Z,30.48
2019-03-03T01:34:11.304Z,30.70
2019-03-03T01:34:44.406Z,31.25
2019-03-03T01:35:17.294Z,30.23
2019-03-03T01:35:50.306Z,30.15
2019-03-03T01:36:23.304Z,30.45
2019-03-03T01:36:56.258Z,34.10
2019-03-03T01:37:29.419Z,30.45
2019-03-03T01:38:02.491Z,30.88
2019-03-03T01:38:35.550Z,30.75
2019-03-03T01:39:08.834Z,31.87
2019-03-03T01:39:42.166Z,30.77
2019-03-03T01:40:15.238Z,31.55
2019-03-03T01:40:48.363Z,31.55
2019-03-03T01:41:21.287Z,31.07
2019-03-03T01:41:54.265Z,31.57
2019-03-03T01:42:27.426Z,32.42
2019-03-03T01:43:00.403Z,30.52
2019-03-03T01:43:33.214Z,30.30
2019-03-03T01:44:06.300Z,30.60
2019-03-03T01:44:39.304Z,30.45
2019-03-03T01:45:13.090Z,33.83
2019-03-03T01:45:46.086Z,33.50
2019-03-03T01:46:19.827Z,30.62
2019-03-03T01:46:52.630Z,31.27
2019-03-03T01:47:25.666Z,30.95
2019-03-03T01:47:58.551Z,31.05
2019-03-03T01:48:31.604Z,30.88
2019-03-03T01:49:04.479Z,31.02
2019-03-03T01:49:37.556Z,30.88
2019-03-03T01:50:10.646Z,31.77
2019-03-03T01:50:43.595Z,31.65
2019-03-03T01:51:16.509Z,34.92
2019-03-03T01:51:49.614Z,33.02
2019-03-03T01:52:22.639Z,31.48
2019-03-03T01:52:55.580Z,31.62
2019-03-03T01:53:28.615Z,32.03
2019-03-03T01:54:01.802Z,30.10
2019-03-03T01:54:34.762Z,32.05
2019-03-03T01:55:10.248Z,31.57
2019-03-03T01:55:43.282Z,30.77
2019-03-03T01:56:16.334Z,30.97
2019-03-03T01:56:49.305Z,30.70
2019-03-03T01:57:22.352Z,31.42
2019-03-03T01:57:56.868Z,30.95
2019-03-03T01:58:29.706Z,32.05
2019-03-03T01:59:02.912Z,30.97
2019-03-03T01:59:35.986Z,32.63
2019-03-03T02:00:19.478Z,30.72
2019-03-03T02:00:52.541Z,31.85
2019-03-03T02:01:25.791Z,34.78
2019-03-03T02:01:58.843Z,31.90
2019-03-03T02:02:32.007Z,32.65
2019-03-03T02:03:05.660Z,36.05
2019-03-03T02:03:39.269Z,31.27
2019-03-03T02:04:12.360Z,33.15
2019-03-03T02:04:45.392Z,33.23
2019-03-03T02:05:18.454Z,35.90
2019-03-03T02:05:51.403Z,36.85
2019-03-03T02:06:24.571Z,31.68
2019-03-03T02:06:58.203Z,32.23
2019-03-03T02:07:31.167Z,35.00
2019-03-03T02:08:04.625Z,35.73
2019-03-03T02:08:37.692Z,32.80
2019-03-03T02:09:11.404Z,33.88
2019-03-03T02:09:44.999Z,34.25
2019-03-03T02:10:22.634Z,30.32
2019-03-03T02:10:56.898Z,31.80
2019-03-03T02:11:29.899Z,31.55
2019-03-03T02:12:03.029Z,31.77
2019-03-03T02:12:36.222Z,34.53
2019-03-03T02:13:09.336Z,33.85
2019-03-03T02:13:42.365Z,34.73
2019-03-03T02:14:16.271Z,31.07
2019-03-03T02:14:49.290Z,34.35
2019-03-03T02:15:22.467Z,34.78
2019-03-03T02:15:55.280Z,33.38
2019-03-03T02:16:28.260Z,33.90
2019-03-03T02:17:01.317Z,34.25
2019-03-03T02:17:34.213Z,33.53
2019-03-03T02:18:07.236Z,31.10
2019-03-03T02:18:40.232Z,35.80
2019-03-03T02:19:13.129Z,31.85
2019-03-03T02:19:46.036Z,35.78
2019-03-03T02:20:19.269Z,33.92
2019-03-03T02:20:52.160Z,30.88
2019-03-03T02:21:25.084Z,34.98
2019-03-03T02:21:58.085Z,30.95
2019-03-03T02:22:31.105Z,31.90
2019-03-03T02:23:04.231Z,31.82
2019-03-03T02:23:39.135Z,33.02
2019-03-03T02:24:12.029Z,33.15
2019-03-03T02:24:44.938Z,34.90
2019-03-03T02:25:17.988Z,32.30
2019-03-03T02:25:50.980Z,33.00
2019-03-03T02:26:23.962Z,33.65
2019-03-03T02:26:56.994Z,31.60
2019-03-03T02:27:29.894Z,33.13
2019-03-03T02:28:02.902Z,31.93
2019-03-03T02:28:35.924Z,31.68
2019-03-03T02:29:08.936Z,34.43
2019-03-03T02:29:41.831Z,34.40
2019-03-03T02:30:17.504Z,31.95
2019-03-03T02:30:50.490Z,36.45
2019-03-03T02:31:23.550Z,43.50
2019-03-03T02:31:57.555Z,42.67
2019-03-03T02:32:30.599Z,35.85
2019-03-03T02:33:03.699Z,35.60
2019-03-03T02:33:36.755Z,35.05
2019-03-03T02:34:09.753Z,39.13
2019-03-03T02:34:42.827Z,40.50
2019-03-03T02:35:16.016Z,41.45
2019-03-03T02:35:49.139Z,32.03
2019-03-03T02:36:22.063Z,36.20
2019-03-03T02:36:55.031Z,33.55
2019-03-03T02:37:28.132Z,33.75
2019-03-03T02:38:01.674Z,32.90
2019-03-03T02:38:34.743Z,40.75
2019-03-03T02:39:14.729Z,33.23
2019-03-03T02:39:47.635Z,35.63
2019-03-03T02:40:20.598Z,34.85
2019-03-03T02:40:53.737Z,31.68
2019-03-03T02:41:26.808Z,31.15
2019-03-03T02:41:59.777Z,39.63
2019-03-03T02:42:32.737Z,31.85
2019-03-03T02:43:05.929Z,33.85
2019-03-03T02:43:40.331Z,35.35
2019-03-03T02:44:13.888Z,33.83
2019-03-03T02:44:46.727Z,35.52
2019-03-03T02:45:19.903Z,32.23
2019-03-03T02:45:52.854Z,31.97
2019-03-03T02:46:25.708Z,36.98
2019-03-03T02:46:58.834Z,32.65
2019-03-03T02:47:32.584Z,31.60
2019-03-03T02:48:05.670Z,36.17
2019-03-03T02:48:38.707Z,35.33
2019-03-03T02:49:11.764Z,34.73
2019-03-03T02:49:44.738Z,35.15
2019-03-03T02:50:17.808Z,33.08
2019-03-03T02:50:50.868Z,35.83
2019-03-03T02:51:23.803Z,34.63
2019-03-03T02:51:56.723Z,36.00
2019-03-03T02:52:29.838Z,34.60
2019-03-03T02:53:03.027Z,31.80
2019-03-03T02:53:35.986Z,31.93
2019-03-03T02:54:08.856Z,35.50
2019-03-03T02:54:41.929Z,32.50
2019-03-03T02:55:14.948Z,31.10
2019-03-03T02:55:49.008Z,31.30
2019-03-03T02:56:21.998Z,32.17
2019-03-03T02:56:55.085Z,38.08
2019-03-03T02:57:28.063Z,35.58
2019-03-03T02:58:01.000Z,31.33
2019-03-03T02:58:33.997Z,31.33
2019-03-03T02:59:07.013Z,33.23
2019-03-03T02:59:40.023Z,33.67
2019-03-03T03:00:18.954Z,32.55
2019-03-03T03:00:57.346Z,34.70
2019-03-03T03:01:40.579Z,36.83
2019-03-03T03:02:33.151Z,31.17
2019-03-03T03:03:09.587Z,36.23
2019-03-03T03:03:42.573Z,37.98
2019-03-03T03:04:15.583Z,32.35
2019-03-03T03:04:48.547Z,37.78
2019-03-03T03:05:32.607Z,31.30
2019-03-03T03:06:31.353Z,33.58
2019-03-03T03:07:19.544Z,34.98
2019-03-03T03:08:05.117Z,32.17
2019-03-03T03:08:56.567Z,32.20
2019-03-03T03:09:35.614Z,32.40
2019-03-03T03:10:18.012Z,38.25
2019-03-03T03:11:22.434Z,31.82
2019-03-03T03:12:10.553Z,33.90
2019-03-03T03:13:09.669Z,32.53
2019-03-03T03:14:04.031Z,36.25
2019-03-03T03:14:45.293Z,33.05
2019-03-03T03:15:36.833Z,33.23
2019-03-03T03:16:32.504Z,32.13
2019-03-03T03:17:13.055Z,34.35
2019-03-03T03:18:08.034Z,31.68
2019-03-03T03:18:48.781Z,32.50
2019-03-03T03:19:42.349Z,31.30
2019-03-03T03:20:36.107Z,36.48
2019-03-03T03:21:24.093Z,31.87
2019-03-03T03:22:23.651Z,33.45
2019-03-03T03:23:20.669Z,35.17
2019-03-03T03:24:02.357Z,31.30
2019-03-03T03:24:57.635Z,37.00
2019-03-03T03:25:38.296Z,33.38
2019-03-03T03:26:36.619Z,37.95
2019-03-03T03:27:25.517Z,35.45
2019-03-03T03:28:15.573Z,32.05
2019-03-03T03:29:06.684Z,32.45
2019-03-03T03:30:02.487Z,32.45
2019-03-03T03:30:58.090Z,33.70
2019-03-03T03:31:38.141Z,32.23
2019-03-03T03:32:17.570Z,31.95
2019-03-03T03:32:57.586Z,31.57
2019-03-03T03:33:40.095Z,37.85
2019-03-03T03:34:17.778Z,33.15
2019-03-03T03:35:16.889Z,31.97
2019-03-03T03:35:59.038Z,36.35
2019-03-03T03:36:40.816Z,34.05
2019-03-03T03:37:33.293Z,32.85
2019-03-03T03:38:16.488Z,33.10
2019-03-03T03:39:11.564Z,36.73
2019-03-03T03:40:02.737Z,33.88
2019-03-03T03:40:45.876Z,36.75
2019-03-03T03:41:24.607Z,34.67
2019-03-03T03:42:07.631Z,31.57
2019-03-03T03:43:00.995Z,40.40
2019-03-03T03:43:52.327Z,33.45
2019-03-03T03:44:33.401Z,33.10
2019-03-03T03:45:21.541Z,31.65
2019-03-03T03:46:20.235Z,32.33
2019-03-03T03:47:02.395Z,38.60
2019-03-03T03:47:46.021Z,34.85
2019-03-03T03:48:25.146Z,36.28
2019-03-03T03:49:27.056Z,35.20
2019-03-03T03:50:19.621Z,41.98
2019-03-03T03:51:11.240Z,37.25
2019-03-03T03:51:57.622Z,31.97
2019-03-03T03:52:50.076Z,39.35
2019-03-03T03:53:29.696Z,37.03
2019-03-03T03:54:13.712Z,35.60
2019-03-03T03:55:03.895Z,36.83
2019-03-03T03:55:46.994Z,35.05
2019-03-03T03:56:30.627Z,33.73
2019-03-03T03:57:11.995Z,40.35
2019-03-03T03:58:02.523Z,39.20
2019-03-03T03:58:57.586Z,38.13
2019-03-03T03:59:45.598Z,39.27
2019-03-03T04:00:31.464Z,34.33
2019-03-03T04:01:22.893Z,34.30
2019-03-03T04:02:30.799Z,37.45
2019-03-03T04:03:24.217Z,37.10
2019-03-03T04:04:15.240Z,38.88
2019-03-03T04:05:19.892Z,42.20
2019-03-03T04:06:01.186Z,37.90
2019-03-03T04:07:12.156Z,36.65
2019-03-03T04:08:00.993Z,34.98
2019-03-03T04:08:46.082Z,38.53
2019-03-03T04:09:43.802Z,40.35
2019-03-03T04:10:41.279Z,42.50
2019-03-03T04:11:21.695Z,38.17
2019-03-03T04:12:14.364Z,37.30
2019-03-03T04:13:10.568Z,36.98
2019-03-03T04:13:50.318Z,37.58
2019-03-03T04:14:45.871Z,41.23
2019-03-03T04:15:42.004Z,43.17
2019-03-03T04:16:23.281Z,39.20
2019-03-03T04:17:31.084Z,41.45
2019-03-03T04:18:16.224Z,34.43
2019-03-03T04:18:55.476Z,38.83
2019-03-03T04:19:38.751Z,40.55
2019-03-03T04:20:28.346Z,40.30
2019-03-03T04:21:08.316Z,43.28
2019-03-03T04:22:03.537Z,41.73
2019-03-03T04:22:52.086Z,37.23
2019-03-03T04:24:00.914Z,38.73
2019-03-03T04:24:57.542Z,37.38
2019-03-03T04:25:47.430Z,43.35
2019-03-03T04:26:52.022Z,36.53
2019-03-03T04:27:47.282Z,42.43
2019-03-03T04:28:42.801Z,39.33
2019-03-03T04:29:39.354Z,45.43
2019-03-03T04:30:29.822Z,44.27
2019-03-03T04:31:11.929Z,40.10
2019-03-03T04:32:19.470Z,40.33
2019-03-03T04:33:03.631Z,41.90
2019-03-03T04:33:44.998Z,42.93
2019-03-03T04:34:33.566Z,51.45
2019-03-03T04:35:14.590Z,41.63
2019-03-03T04:35:58.752Z,44.15
2019-03-03T04:36:41.240Z,48.55
2019-03-03T04:37:39.521Z,44.00
2019-03-03T04:38:27.531Z,46.63
2019-03-03T04:39:16.266Z,45.50
2019-03-03T04:39:59.378Z,42.08
2019-03-03T04:40:46.202Z,40.88
2019-03-03T04:41:47.771Z,41.25
2019-03-03T04:42:28.394Z,50.10
2019-03-03T04:43:07.594Z,41.05
2019-03-03T04:43:53.392Z,54.50
2019-03-03T04:44:46.009Z,43.92
2019-03-03T04:45:37.432Z,43.75
2019-03-03T04:46:22.154Z,44.90
2019-03-03T04:47:02.228Z,37.70
2019-03-03T04:47:57.296Z,39.55
2019-03-03T04:48:38.985Z,41.60
2019-03-03T04:49:31.998Z,42.40
2019-03-03T04:50:15.594Z,43.73
2019-03-03T04:51:10.884Z,39.90
2019-03-03T04:51:55.166Z,39.42
2019-03-03T04:52:36.359Z,45.23
2019-03-03T04:53:29.069Z,42.60
2019-03-03T04:54:21.766Z,50.83
2019-03-03T04:55:17.400Z,48.08
2019-03-03T04:56:16.402Z,45.70
2019-03-03T04:57:18.128Z,43.60
2019-03-03T04:58:09.288Z,41.28
2019-03-03T04:58:51.956Z,44.70
2019-03-03T05:00:02.796Z,44.53
2019-03-03T05:00:44.693Z,42.90
2019-03-03T05:01:32.602Z,43.45
2019-03-03T05:02:24.102Z,42.50
2019-03-03T05:03:19.690Z,48.30
2019-03-03T05:04:11.665Z,45.00
2019-03-03T05:04:57.018Z,48.48
2019-03-03T05:05:35.227Z,46.90
2019-03-03T05:06:40.382Z,42.05
2019-03-03T05:07:35.968Z,48.17
2019-03-03T05:08:22.521Z,42.88
2019-03-03T05:09:04.621Z,45.28
2019-03-03T05:09:45.372Z,50.15
2019-03-03T05:10:30.022Z,44.35
2019-03-03T05:11:18.039Z,41.37
2019-03-03T05:12:38.986Z,45.33
2019-03-03T05:13:37.636Z,44.90
2019-03-03T05:14:19.926Z,44.75
2019-03-03T05:14:55.543Z,43.00
2019-03-03T05:15:51.199Z,45.38
2019-03-03T05:16:34.237Z,46.85
2019-03-03T05:17:15.236Z,43.17
2019-03-03T05:17:53.334Z,52.25
2019-03-03T05:18:35.968Z,44.53
2019-03-03T05:19:16.658Z,43.17
2019-03-03T05:19:53.929Z,42.75
2019-03-03T05:20:44.219Z,39.85
2019-03-03T05:21:17.271Z,42.50
2019-03-03T05:21:50.083Z,43.52
2019-03-03T05:22:23.022Z,47.93
2019-03-03T05:22:56.024Z,50.17
2019-03-03T05:23:29.121Z,47.35
2019-03-03T05:24:02.243Z,45.63
2019-03-03T05:24:35.333Z,46.95
2019-03-03T05:25:08.371Z,48.38
2019-03-03T05:25:42.951Z,44.25
2019-03-03T05:26:15.801Z,51.28
2019-03-03T05:26:50.522Z,49.45
2019-03-03T05:27:23.496Z,51.70
2019-03-03T05:27:56.595Z,50.65
2019-03-03T05:28:29.438Z,51.10
2019-03-03T05:29:02.484Z,42.98
2019-03-03T05:29:35.406Z,40.52
2019-03-03T05:30:08.652Z,46.77
2019-03-03T05:30:41.606Z,47.27
2019-03-03T05:31:14.483Z,52.73
2019-03-03T05:31:47.624Z,51.40
2019-03-03T05:32:20.530Z,46.15
2019-03-03T05:32:53.465Z,50.40
2019-03-03T05:33:26.333Z,50.38
2019-03-03T05:33:59.182Z,46.75
2019-03-03T05:34:31.965Z,44.55
2019-03-03T05:35:05.311Z,44.15
2019-03-03T05:35:38.323Z,53.60
2019-03-03T05:36:11.346Z,46.55
2019-03-03T05:36:44.341Z,44.98
2019-03-03T05:37:17.382Z,47.43
2019-03-03T05:37:50.327Z,45.33
2019-03-03T05:38:23.300Z,46.30
2019-03-03T05:38:56.300Z,46.58
2019-03-03T05:39:29.221Z,48.98
2019-03-03T05:40:02.659Z,48.83
2019-03-03T05:40:35.707Z,45.35
2019-03-03T05:41:08.703Z,51.00
2019-03-03T05:41:41.742Z,43.30
2019-03-03T05:42:14.737Z,51.13
2019-03-03T05:42:47.566Z,49.48
2019-03-03T05:43:21.180Z,53.98
2019-03-03T05:43:54.225Z,52.73
2019-03-03T05:44:27.229Z,46.20
2019-03-03T05:45:00.222Z,44.40
2019-03-03T05:45:33.286Z,52.15
2019-03-03T05:46:06.347Z,55.03
2019-03-03T05:46:39.335Z,49.88
2019-03-03T05:47:12.311Z,56.13
2019-03-03T05:47:45.368Z,52.23
2019-03-03T05:48:19.825Z,52.78
2019-03-03T05:48:52.893Z,52.30
2019-03-03T05:49:26.002Z,47.23
2019-03-03T05:49:58.867Z,42.08
2019-03-03T05:50:32.110Z,47.20
2019-03-03T05:51:06.062Z,53.08
2019-03-03T05:51:39.138Z,49.58
2019-03-03T05:52:12.010Z,50.15
2019-03-03T05:52:45.272Z,45.98
2019-03-03T05:53:18.315Z,46.37
2019-03-03T05:53:51.270Z,57.62
2019-03-03T05:54:24.353Z,46.20
2019-03-03T05:54:57.393Z,43.85
2019-03-03T05:55:30.446Z,47.73
2019-03-03T05:56:05.120Z,48.48
2019-03-03T05:56:38.098Z,55.15
2019-03-03T05:57:11.166Z,49.30
2019-03-03T05:57:44.088Z,51.08
2019-03-03T05:58:17.027Z,53.78
2019-03-03T05:58:49.951Z,49.10
2019-03-03T05:59:22.957Z,47.50
2019-03-03T05:59:55.810Z,57.08
2019-03-03T06:00:28.832Z,60.40
2019-03-03T06:01:01.797Z,52.33
2019-03-03T06:01:34.835Z,48.75
2019-03-03T06:02:08.654Z,48.20
2019-03-03T06:02:41.627Z,48.05
2019-03-03T06:03:14.709Z,49.95
2019-03-03T06:03:47.543Z,59.48
2019-03-03T06:04:20.404Z,60.63
2019-03-03T06:04:53.343Z,48.80
2019-03-03T06:05:27.435Z,48.05
2019-03-03T06:06:01.989Z,49.88
2019-03-03T06:06:34.889Z,59.30
2019-03-03T06:07:07.819Z,48.60
2019-03-03T06:07:40.904Z,57.48
2019-03-03T06:08:13.920Z,46.30
2019-03-03T06:08:46.823Z,46.68
2019-03-03T06:09:19.677Z,50.60
2019-03-03T06:09:52.538Z,54.18
2019-03-03T06:10:25.592Z,48.75
2019-03-03T06:10:58.538Z,46.85
2019-03-03T06:11:32.778Z,47.05
2019-03-03T06:12:05.739Z,54.77
2019-03-03T06:12:38.710Z,50.80
2019-03-03T06:13:12.821Z,50.08
2019-03-03T06:13:45.687Z,51.73
2019-03-03T06:14:18.725Z,46.53
2019-03-03T06:14:51.557Z,55.45
2019-03-03T06:15:24.595Z,53.33
2019-03-03T06:15:57.627Z,49.95
2019-03-03T06:16:30.879Z,54.58
2019-03-03T06:17:03.940Z,53.30
2019-03-03T06:17:36.883Z,51.00
2019-03-03T06:18:09.842Z,51.30
2019-03-03T06:18:42.974Z,48.92
2019-03-03T06:19:16.042Z,55.52
2019-03-03T06:19:48.961Z,50.40
2019-03-03T06:20:22.089Z,57.20
2019-03-03T06:20:55.046Z,52.00
2019-03-03T06:21:28.179Z,48.78
2019-03-03T06:22:01.138Z,49.10
2019-03-03T06:22:34.301Z,53.83
2019-03-03T06:23:07.347Z,54.90
2019-03-03T06:23:40.414Z,47.73
2019-03-03T06:24:14.109Z,58.28
2019-03-03T06:24:47.082Z,47.25
2019-03-03T06:25:20.136Z,50.80
2019-03-03T06:25:53.171Z,49.50
2019-03-03T06:26:26.205Z,51.83
2019-03-03T06:26:59.334Z,48.35
2019-03-03T06:27:32.465Z,51.70
2019-03-03T06:28:05.544Z,51.53
2019-03-03T06:28:38.382Z,49.90
2019-03-03T06:29:11.406Z,50.63
2019-03-03T06:29:44.335Z,49.40
2019-03-03T06:30:17.374Z,48.87
2019-03-03T06:30:50.395Z,55.63
2019-03-03T06:31:25.109Z,52.38
2019-03-03T06:31:58.261Z,45.17
2019-03-03T06:32:31.333Z,47.08
2019-03-03T06:33:04.432Z,51.08
2019-03-03T06:33:37.287Z,50.28
2019-03-03T06:34:10.152Z,49.23
2019-03-03T06:34:43.039Z,56.63
2019-03-03T06:35:16.177Z,46.40
2019-03-03T06:35:49.266Z,47.55
2019-03-03T06:36:22.341Z,55.10
2019-03-03T06:36:55.361Z,50.43
2019-03-03T06:37:29.496Z,51.13
2019-03-03T06:38:02.533Z,49.98
2019-03-03T06:38:35.389Z,58.13
2019-03-03T06:39:08.399Z,54.67
2019-03-03T06:39:41.376Z,47.70
2019-03-03T06:40:14.420Z,58.55
2019-03-03T06:40:47.438Z,43.33
2019-03-03T06:41:20.403Z,46.08
2019-03-03T06:41:53.399Z,54.65
2019-03-03T06:42:26.499Z,47.53
2019-03-03T06:42:59.289Z,51.77
2019-03-03T06:43:32.336Z,45.88
2019-03-03T06:44:05.369Z,42.45
2019-03-03T06:44:38.247Z,50.80
2019-03-03T06:45:12.611Z,50.50
2019-03-03T06:45:45.571Z,45.95
2019-03-03T06:46:18.627Z,48.95
2019-03-03T06:46:51.498Z,52.85
2019-03-03T06:47:24.530Z,42.85
2019-03-03T06:47:57.475Z,53.63
2019-03-03T06:48:31.513Z,50.83
2019-03-03T06:49:04.558Z,42.60
2019-03-03T06:49:37.410Z,44.93
2019-03-03T06:50:11.078Z,41.88
2019-03-03T06:50:44.530Z,39.98
2019-03-03T06:51:17.495Z,37.53
2019-03-03T06:51:50.539Z,38.02
2019-03-03T06:52:23.625Z,37.50
2019-03-03T06:52:56.675Z,37.78
2019-03-03T06:53:29.628Z,37.60
2019-03-03T06:54:02.570Z,35.68
2019-03-03T06:54:35.430Z,40.35
2019-03-03T06:55:08.783Z,36.48
2019-03-03T06:55:43.001Z,37.40
2019-03-03T06:56:16.059Z,33.28
2019-03-03T06:56:49.152Z,32.23
2019-03-03T06:57:22.211Z,36.23
2019-03-03T06:57:55.124Z,34.05
2019-03-03T06:58:28.209Z,35.28
2019-03-03T06:59:01.359Z,32.80
2019-03-03T06:59:34.255Z,31.10
2019-03-03T07:00:12.772Z,33.95
2019-03-03T07:00:45.846Z,30.85
2019-03-03T07:01:18.888Z,31.80
2019-03-03T07:01:51.940Z,34.83
2019-03-03T07:02:24.966Z,32.80
2019-03-03T07:02:58.789Z,34.18
2019-03-03T07:03:32.950Z,31.48
2019-03-03T07:04:05.995Z,31.45
2019-03-03T07:04:39.021Z,34.13
2019-03-03T07:05:12.050Z,31.60
2019-03-03T07:05:45.594Z,31.60
2019-03-03T07:06:18.511Z,34.05
2019-03-03T07:06:51.517Z,31.40
2019-03-03T07:07:24.470Z,31.35
2019-03-03T07:07:57.435Z,32.30
2019-03-03T07:08:30.506Z,33.53
2019-03-03T07:09:04.931Z,31.75
2019-03-03T07:09:39.339Z,32.08
2019-03-03T07:10:13.189Z,33.55
2019-03-03T07:10:46.218Z,31.35
2019-03-03T07:11:19.758Z,32.38
2019-03-03T07:11:52.609Z,31.40
2019-03-03T07:12:25.660Z,35.55
2019-03-03T07:12:59.630Z,36.28
2019-03-03T07:13:32.676Z,34.38
2019-03-03T07:14:05.736Z,32.15
2019-03-03T07:14:38.792Z,36.10
2019-03-03T07:15:14.555Z,34.58
2019-03-03T07:15:47.625Z,34.13
2019-03-03T07:16:20.721Z,31.57
2019-03-03T07:16:53.866Z,31.40
2019-03-03T07:17:26.840Z,33.38
2019-03-03T07:18:01.423Z,32.38
2019-03-03T07:18:34.372Z,33.95
2019-03-03T07:19:07.315Z,32.25
2019-03-03T07:19:41.174Z,31.57
2019-03-03T07:20:14.334Z,36.03
2019-03-03T07:20:47.359Z,32.08
2019-03-03T07:21:20.277Z,30.48
2019-03-03T07:21:53.178Z,31.12
2019-03-03T07:22:26.238Z,30.52
2019-03-03T07:22:59.198Z,31.77
2019-03-03T07:23:32.492Z,31.75
2019-03-03T07:24:05.512Z,31.05
2019-03-03T07:24:38.446Z,32.13
2019-03-03T07:25:11.872Z,30.80
2019-03-03T07:25:45.031Z,30.50
2019-03-03T07:26:18.085Z,31.17
2019-03-03T07:26:51.135Z,32.75
2019-03-03T07:27:24.080Z,30.62
2019-03-03T07:27:57.163Z,30.20
2019-03-03T07:28:30.257Z,30.45
2019-03-03T07:29:03.291Z,30.77
2019-03-03T07:29:36.225Z,30.08
2019-03-03T07:30:13.653Z,29.75
2019-03-03T07:30:46.619Z,30.15
2019-03-03T07:31:19.795Z,31.40
2019-03-03T07:31:53.285Z,30.43
2019-03-03T07:32:26.220Z,30.50
2019-03-03T07:33:30.912Z,30.27
2019-03-03T07:34:04.077Z,30.08
2019-03-03T07:34:37.013Z,29.87
2019-03-03T07:35:09.963Z,29.50
2019-03-03T07:35:43.456Z,30.00
2019-03-03T07:36:16.391Z,29.65
2019-03-03T07:36:49.520Z,29.60
2019-03-03T07:37:22.490Z,29.50
2019-03-03T07:37:55.471Z,29.42
2019-03-03T07:38:28.548Z,29.27
2019-03-03T07:39:02.190Z,29.67
2019-03-03T07:39:37.063Z,29.92
2019-03-03T07:40:12.270Z,29.45
2019-03-03T07:40:46.478Z,29.40
2019-03-03T07:41:19.494Z,29.82
2019-03-03T07:41:52.331Z,29.20
2019-03-03T07:42:25.301Z,29.30
2019-03-03T07:42:58.242Z,29.67
2019-03-03T07:43:31.067Z,29.42
2019-03-03T07:44:04.518Z,28.90
2019-03-03T07:44:37.534Z,29.72
2019-03-03T07:45:10.936Z,29.35
2019-03-03T07:45:43.925Z,30.02
2019-03-03T07:46:17.050Z,29.82
2019-03-03T07:46:50.019Z,29.35
2019-03-03T07:47:22.976Z,30.68
2019-03-03T07:47:55.901Z,29.57
2019-03-03T07:48:28.753Z,29.37
2019-03-03T07:49:01.736Z,29.35
2019-03-03T07:49:34.735Z,29.37
2019-03-03T07:50:07.913Z,29.32
2019-03-03T07:50:40.959Z,28.85
2019-03-03T07:51:13.952Z,29.07
2019-03-03T07:51:47.214Z,30.23
2019-03-03T07:52:20.174Z,29.87
2019-03-03T07:52:53.245Z,29.95
2019-03-03T07:53:26.210Z,29.67
2019-03-03T07:53:59.114Z,30.57
2019-03-03T07:54:32.181Z,29.80
2019-03-03T07:55:05.993Z,29.67
2019-03-03T07:55:39.126Z,29.95
2019-03-03T07:56:12.229Z,29.80
2019-03-03T07:56:45.283Z,29.12
2019-03-03T07:57:18.528Z,30.15
2019-03-03T07:57:51.583Z,29.35
2019-03-03T07:58:26.145Z,29.50
2019-03-03T07:58:59.215Z,29.98
2019-03-03T07:59:32.582Z,28.95
2019-03-03T08:00:07.825Z,30.15
2019-03-03T08:00:40.940Z,28.77
2019-03-03T08:01:14.099Z,29.40
2019-03-03T08:01:47.640Z,29.50
2019-03-03T08:02:20.839Z,29.80
2019-03-03T08:02:53.742Z,28.80
2019-03-03T08:03:26.872Z,29.45
2019-03-03T08:03:59.777Z,28.40
2019-03-03T08:04:33.151Z,29.15
2019-03-03T08:05:06.828Z,28.73
2019-03-03T08:05:39.882Z,29.12
2019-03-03T08:06:12.872Z,27.98
2019-03-03T08:06:47.815Z,28.40
2019-03-03T08:07:20.987Z,28.77
2019-03-03T08:07:53.902Z,28.75
2019-03-03T08:08:26.852Z,27.40
2019-03-03T08:08:59.747Z,27.82
2019-03-03T08:09:32.864Z,28.30
2019-03-03T08:10:06.693Z,27.75
2019-03-03T08:10:39.630Z,27.73